createdAt,value
2023-04-27T00:00:22.879Z,10.27
2023-04-27T00:02:54.212Z,10.11
2023-04-27T00:05:28.406Z,10.02
2023-04-27T00:08:00.435Z,10.08
2023-04-27T00:10:31.589Z,10.00
2023-04-27T00:13:06.244Z,10.10
2023-04-27T00:15:35.387Z,9.96
2023-04-27T00:18:13.644Z,9.93
2023-04-27T00:20:42.120Z,10.03
2023-04-27T00:23:14.174Z,10.08
2023-04-27T00:25:45.982Z,10.00
2023-04-27T00:28:20.618Z,9.79
2023-04-27T00:31:02.602Z,9.82
2023-04-27T00:33:32.255Z,9.76
2023-04-27T00:36:01.731Z,9.83
2023-04-27T00:38:34.032Z,9.71
2023-04-27T00:41:03.838Z,9.75
2023-04-27T00:43:42.219Z,9.77
2023-04-27T00:46:14.014Z,9.81
2023-04-27T00:48:45.946Z,9.90
2023-04-27T00:51:15.369Z,9.53
2023-04-27T00:53:47.975Z,9.68
2023-04-27T00:56:24.668Z,9.69
2023-04-27T00:59:02.501Z,9.83
2023-04-27T01:01:31.156Z,9.59
2023-04-27T01:04:01.554Z,9.59
2023-04-27T01:06:36.887Z,9.78
2023-04-27T01:09:18.873Z,9.64
2023-04-27T01:11:49.256Z,9.53
2023-04-27T01:14:32.820Z,9.48
2023-04-27T01:17:03.308Z,9.55
2023-04-27T01:19:33.537Z,9.52
2023-04-27T01:22:07.162Z,9.44
2023-04-27T01:24:42.860Z,9.45
2023-04-27T01:27:17.483Z,9.40
2023-04-27T01:29:55.751Z,9.56
2023-04-27T01:32:31.448Z,9.37
2023-04-27T01:35:03.154Z,9.32
2023-04-27T01:37:35.264Z,9.16
2023-04-27T01:40:07.390Z,9.23
2023-04-27T01:42:39.225Z,9.32
2023-04-27T01:45:12.893Z,9.31
2023-04-27T01:47:49.964Z,9.22
2023-04-27T01:50:27.134Z,9.11
2023-04-27T01:52:59.248Z,9.15
2023-04-27T01:55:44.528Z,9.11
2023-04-27T01:58:26.633Z,9.02
2023-04-27T02:01:02.479Z,8.99
2023-04-27T02:03:36.776Z,9.11
2023-04-27T02:06:09.842Z,8.93
2023-04-27T02:08:39.194Z,8.89
2023-04-27T02:11:12.590Z,8.85
2023-04-27T02:13:43.509Z,8.87
2023-04-27T02:16:12.238Z,9.06
2023-04-27T02:18:56.091Z,8.89
2023-04-27T02:21:37.338Z,8.93
2023-04-27T02:24:07.877Z,9.11
2023-04-27T02:26:48.315Z,8.88
2023-04-27T02:29:22.991Z,8.80
2023-04-27T02:31:54.709Z,8.71
2023-04-27T02:34:32.002Z,8.74
2023-04-27T02:37:00.762Z,8.73
2023-04-27T02:39:30.881Z,8.58
2023-04-27T02:42:04.322Z,8.83
2023-04-27T02:44:38.363Z,8.56
2023-04-27T02:47:09.442Z,8.59
2023-04-27T02:49:38.918Z,8.56
2023-04-27T02:52:07.780Z,8.69
2023-04-27T02:54:39.368Z,8.47
2023-04-27T02:57:14.208Z,8.53
2023-04-27T02:59:55.370Z,8.51
2023-04-27T03:02:26.311Z,8.57
2023-04-27T03:04:57.846Z,8.54
2023-04-27T03:07:29.279Z,8.62
2023-04-27T03:09:58.846Z,8.54
2023-04-27T03:12:31.060Z,8.35
2023-04-27T03:15:01.171Z,8.47
2023-04-27T03:17:30.397Z,8.55
2023-04-27T03:20:00.241Z,8.66
2023-04-27T03:22:30.942Z,8.63
2023-04-27T03:25:03.306Z,8.67
2023-04-27T03:27:38.778Z,8.75
2023-04-27T03:30:16.870Z,8.68
2023-04-27T03:32:47.867Z,8.63
2023-04-27T03:35:27.651Z,8.53
2023-04-27T03:37:59.757Z,8.83
2023-04-27T03:40:30.362Z,8.81
2023-04-27T03:43:04.137Z,8.62
2023-04-27T03:45:33.716Z,8.66
2023-04-27T03:48:02.312Z,8.69
2023-04-27T03:50:39.513Z,8.68
2023-04-27T03:53:10.849Z,8.64
2023-04-27T03:55:42.442Z,8.49
2023-04-27T03:58:20.567Z,8.53
2023-04-27T04:01:22.182Z,8.63
2023-04-27T04:03:54.523Z,8.50
2023-04-27T04:06:26.569Z,8.63
2023-04-27T04:09:02.924Z,8.77
2023-04-27T04:11:31.674Z,8.81
2023-04-27T04:14:06.400Z,8.71
2023-04-27T04:16:38.558Z,8.79
2023-04-27T04:19:10.041Z,8.90
2023-04-27T04:21:41.713Z,8.96
2023-04-27T04:24:11.406Z,8.85
2023-04-27T04:26:42.586Z,8.83
2023-04-27T04:29:23.630Z,8.90
2023-04-27T04:31:59.355Z,8.86
2023-04-27T04:34:33.447Z,9.09
2023-04-27T04:37:05.975Z,9.08
2023-04-27T04:39:35.844Z,9.17
2023-04-27T04:42:07.487Z,9.26
2023-04-27T04:44:38.786Z,8.96
2023-04-27T04:47:07.889Z,9.33
2023-04-27T04:49:37.133Z,9.32
2023-04-27T04:52:09.235Z,9.29
2023-04-27T04:54:41.543Z,9.28
2023-04-27T04:57:15.389Z,9.46
2023-04-27T04:59:51.455Z,9.52
2023-04-27T05:02:29.062Z,9.66
2023-04-27T05:04:58.876Z,9.73
2023-04-27T05:07:32.830Z,9.73
2023-04-27T05:10:02.536Z,9.64
2023-04-27T05:12:33.899Z,9.74
2023-04-27T05:15:06.234Z,10.02
2023-04-27T05:17:36.762Z,10.07
2023-04-27T05:20:07.942Z,9.97
2023-04-27T05:22:50.328Z,10.16
2023-04-27T05:25:29.105Z,10.16
2023-04-27T05:27:59.850Z,10.28
2023-04-27T05:30:38.197Z,10.30
2023-04-27T05:33:07.073Z,10.21
2023-04-27T05:35:39.527Z,10.29
2023-04-27T05:38:11.103Z,10.29
2023-04-27T05:40:42.903Z,10.35
2023-04-27T05:43:13.675Z,10.29
2023-04-27T05:45:50.696Z,10.34
2023-04-27T05:48:19.823Z,10.31
2023-04-27T05:50:49.279Z,10.42
2023-04-27T05:53:17.858Z,10.60
2023-04-27T05:55:49.687Z,10.74
2023-04-27T05:58:28.355Z,10.77
2023-04-27T06:01:04.794Z,10.79
2023-04-27T06:03:36.132Z,10.90
2023-04-27T06:06:13.558Z,10.85
2023-04-27T06:08:47.270Z,10.92
2023-04-27T06:11:19.177Z,10.82
2023-04-27T06:13:48.007Z,10.73
2023-04-27T06:16:24.127Z,10.87
2023-04-27T06:18:52.886Z,10.99
2023-04-27T06:21:22.325Z,11.05
2023-04-27T06:23:55.111Z,11.01
2023-04-27T06:26:29.067Z,11.27
2023-04-27T06:29:02.245Z,11.17
2023-04-27T06:31:47.848Z,11.26
2023-04-27T06:34:16.466Z,11.30
2023-04-27T06:36:55.823Z,11.26
2023-04-27T06:39:25.178Z,11.34
2023-04-27T06:41:55.832Z,11.09
2023-04-27T06:44:30.187Z,11.13
2023-04-27T06:47:02.205Z,11.28
2023-04-27T06:49:31.540Z,11.22
2023-04-27T06:52:03.717Z,11.53
2023-04-27T06:54:34.255Z,11.65
2023-04-27T06:57:11.011Z,11.58
2023-04-27T06:59:42.749Z,11.53
2023-04-27T07:02:17.689Z,11.66
2023-04-27T07:04:48.728Z,11.43
2023-04-27T07:07:26.792Z,11.56
2023-04-27T07:10:11.337Z,11.50
2023-04-27T07:12:41.642Z,11.75
2023-04-27T07:15:15.158Z,11.96
2023-04-27T07:17:49.437Z,11.98
2023-04-27T07:20:23.231Z,12.10
2023-04-27T07:22:51.552Z,12.18
2023-04-27T07:25:31.818Z,12.34
2023-04-27T07:28:06.075Z,12.27
2023-04-27T07:30:44.388Z,12.26
2023-04-27T07:33:16.490Z,12.28
2023-04-27T07:35:53.331Z,12.28
2023-04-27T07:38:22.092Z,12.45
2023-04-27T07:40:51.409Z,12.67
2023-04-27T07:43:23.789Z,12.72
2023-04-27T07:45:54.576Z,12.44
2023-04-27T07:48:25.584Z,12.34
2023-04-27T07:51:02.503Z,12.61
2023-04-27T07:53:31.672Z,12.82
2023-04-27T07:56:01.202Z,12.51
2023-04-27T07:58:31.984Z,12.74
2023-04-27T08:01:01.701Z,13.25
2023-04-27T08:03:40.132Z,13.24
2023-04-27T08:06:12.226Z,12.87
2023-04-27T08:08:43.038Z,12.68
2023-04-27T08:11:13.867Z,12.88
2023-04-27T08:13:44.250Z,13.09
2023-04-27T08:16:15.216Z,12.67
2023-04-27T08:18:47.246Z,12.85
2023-04-27T08:21:23.938Z,13.09
2023-04-27T08:23:55.133Z,13.50
2023-04-27T08:26:26.254Z,13.44
2023-04-27T08:29:15.318Z,13.08
2023-04-27T08:31:48.806Z,13.60
2023-04-27T08:34:30.762Z,13.31
2023-04-27T08:37:04.506Z,13.08
2023-04-27T08:39:41.520Z,12.83
2023-04-27T08:42:17.491Z,12.84
2023-04-27T08:44:47.171Z,12.95
2023-04-27T08:47:16.083Z,13.32
2023-04-27T08:49:47.140Z,13.30
2023-04-27T08:52:19.616Z,12.95
2023-04-27T08:54:47.833Z,13.03
2023-04-27T08:57:21.884Z,13.27
2023-04-27T09:00:02.184Z,13.24
2023-04-27T09:02:34.039Z,13.31
2023-04-27T09:05:07.112Z,13.38
2023-04-27T09:07:36.765Z,13.45
2023-04-27T09:10:11.326Z,13.56
2023-04-27T09:12:44.015Z,13.51
2023-04-27T09:15:13.089Z,13.53
2023-04-27T09:17:42.401Z,12.93
2023-04-27T09:20:13.834Z,13.19
2023-04-27T09:22:48.917Z,13.60
2023-04-27T09:25:26.473Z,13.54
2023-04-27T09:27:59.536Z,13.74
2023-04-27T09:30:31.952Z,13.80
2023-04-27T09:33:03.194Z,13.71
2023-04-27T09:35:34.506Z,13.94
2023-04-27T09:38:04.129Z,14.01
2023-04-27T09:40:33.651Z,13.91
2023-04-27T09:43:07.529Z,13.64
2023-04-27T09:45:35.938Z,13.72
2023-04-27T09:48:08.355Z,13.73
2023-04-27T09:50:47.011Z,13.71
2023-04-27T09:53:25.128Z,13.99
2023-04-27T09:56:04.463Z,14.17
2023-04-27T09:59:11.545Z,14.03
2023-04-27T10:01:44.216Z,14.07
2023-04-27T10:04:28.284Z,14.27
2023-04-27T10:07:05.795Z,14.19
2023-04-27T10:09:44.803Z,14.20
2023-04-27T10:12:22.195Z,14.08
2023-04-27T10:14:57.352Z,13.96
2023-04-27T10:17:37.778Z,13.88
2023-04-27T10:20:11.927Z,13.92
2023-04-27T10:22:46.207Z,14.01
2023-04-27T10:25:18.367Z,14.30
2023-04-27T10:27:52.296Z,14.64
2023-04-27T10:30:24.189Z,14.70
2023-04-27T10:32:57.661Z,14.52
2023-04-27T10:35:34.752Z,14.36
2023-04-27T10:38:33.555Z,14.59
2023-04-27T10:41:05.253Z,14.90
2023-04-27T10:43:36.366Z,14.89
2023-04-27T10:46:12.046Z,15.08
2023-04-27T10:48:42.674Z,15.12
2023-04-27T10:51:13.554Z,15.26
2023-04-27T10:53:46.465Z,15.26
2023-04-27T10:56:20.789Z,15.28
2023-04-27T10:59:01.989Z,15.41
2023-04-27T11:01:30.863Z,15.70
2023-04-27T11:04:08.351Z,15.61
2023-04-27T11:06:44.001Z,15.66
2023-04-27T11:09:16.710Z,15.82
2023-04-27T11:11:46.868Z,15.99
2023-04-27T11:14:23.552Z,15.56
2023-04-27T11:16:54.489Z,15.85
2023-04-27T11:19:25.891Z,15.80
2023-04-27T11:22:07.226Z,15.68
2023-04-27T11:24:49.471Z,15.47
2023-04-27T11:27:25.458Z,15.36
2023-04-27T11:29:54.888Z,15.49
2023-04-27T11:32:25.399Z,16.10
2023-04-27T11:34:57.209Z,16.20
2023-04-27T11:37:28.825Z,16.44
2023-04-27T11:40:05.059Z,16.77
2023-04-27T11:42:35.452Z,16.36
2023-04-27T11:45:09.156Z,16.75
2023-04-27T11:47:42.698Z,16.88
2023-04-27T11:50:12.330Z,17.16
2023-04-27T11:52:44.150Z,17.13
2023-04-27T11:55:24.667Z,17.49
2023-04-27T11:58:02.297Z,17.23
2023-04-27T12:00:32.783Z,17.76
2023-04-27T12:03:05.051Z,17.99
2023-04-27T12:05:36.979Z,17.33
2023-04-27T12:08:08.596Z,17.39
2023-04-27T12:10:42.401Z,16.49
2023-04-27T12:13:10.920Z,16.39
2023-04-27T12:15:40.836Z,17.02
2023-04-27T12:18:19.575Z,17.21
2023-04-27T12:20:49.202Z,17.03
2023-04-27T12:23:25.831Z,17.13
2023-04-27T12:25:56.906Z,17.74
2023-04-27T12:28:27.676Z,18.53
2023-04-27T12:30:58.467Z,18.83
2023-04-27T12:33:27.299Z,18.85
2023-04-27T12:35:57.996Z,18.56
2023-04-27T12:38:28.096Z,18.99
2023-04-27T12:41:00.131Z,19.06
2023-04-27T12:43:28.296Z,19.16
2023-04-27T12:46:00.364Z,18.82
2023-04-27T12:48:29.478Z,18.79
2023-04-27T12:50:59.247Z,18.72
2023-04-27T12:53:31.498Z,18.78
2023-04-27T12:56:07.918Z,18.59
2023-04-27T12:58:36.668Z,17.85
2023-04-27T13:01:07.860Z,17.02
2023-04-27T13:03:36.414Z,17.27
2023-04-27T13:06:08.305Z,16.79
2023-04-27T13:08:39.209Z,16.75
2023-04-27T13:11:12.486Z,16.48
2023-04-27T13:13:46.062Z,16.42
2023-04-27T13:16:23.245Z,17.10
2023-04-27T13:19:01.015Z,18.26
2023-04-27T13:21:30.649Z,19.02
2023-04-27T13:24:01.032Z,18.96
2023-04-27T13:26:38.343Z,18.59
2023-04-27T13:29:08.265Z,18.62
2023-04-27T13:31:37.699Z,18.96
2023-04-27T13:34:09.004Z,19.26
2023-04-27T13:36:44.070Z,19.66
2023-04-27T13:39:13.333Z,18.38
2023-04-27T13:41:47.296Z,18.55
2023-04-27T13:44:20.763Z,19.03
2023-04-27T13:46:51.461Z,18.42
2023-04-27T13:49:30.174Z,18.86
2023-04-27T13:51:59.532Z,19.81
2023-04-27T13:54:31.189Z,19.26
2023-04-27T13:57:03.463Z,19.30
2023-04-27T13:59:40.563Z,19.85
2023-04-27T14:02:10.993Z,20.69
2023-04-27T14:04:41.698Z,19.56
2023-04-27T14:07:11.474Z,18.93
2023-04-27T14:09:40.123Z,19.81
2023-04-27T14:12:17.570Z,20.73
2023-04-27T14:14:54.142Z,20.96
2023-04-27T14:17:24.873Z,20.12
2023-04-27T14:19:55.905Z,19.11
2023-04-27T14:22:25.229Z,18.90
2023-04-27T14:24:54.141Z,19.11
2023-04-27T14:27:37.851Z,19.25
2023-04-27T14:30:23.055Z,19.30
2023-04-27T14:32:52.487Z,19.18
2023-04-27T14:35:23.795Z,19.43
2023-04-27T14:37:52.249Z,19.61
2023-04-27T14:40:21.756Z,19.16
2023-04-27T14:43:07.022Z,18.83
2023-04-27T14:45:50.187Z,18.94
2023-04-27T14:48:26.887Z,18.88
2023-04-27T14:50:57.491Z,18.96
2023-04-27T14:53:33.999Z,19.18
2023-04-27T14:56:03.288Z,19.30
2023-04-27T14:58:38.758Z,19.40
2023-04-27T15:01:18.433Z,19.66
2023-04-27T15:03:53.346Z,19.50
2023-04-27T15:06:24.053Z,19.43
2023-04-27T15:08:56.298Z,20.02
2023-04-27T15:11:26.019Z,19.92
2023-04-27T15:14:07.418Z,19.36
2023-04-27T15:16:41.628Z,19.26
2023-04-27T15:19:10.426Z,19.55
2023-04-27T15:21:42.025Z,19.10
2023-04-27T15:24:14.584Z,19.14
2023-04-27T15:26:48.228Z,19.29
2023-04-27T15:29:26.109Z,19.55
2023-04-27T15:31:58.149Z,19.67
2023-04-27T15:34:28.371Z,19.52
2023-04-27T15:36:58.973Z,20.12
2023-04-27T15:39:28.293Z,20.55
2023-04-27T15:41:59.659Z,21.05
2023-04-27T15:44:29.752Z,21.01
2023-04-27T15:47:02.278Z,20.12
2023-04-27T15:49:39.812Z,20.16
2023-04-27T15:52:15.324Z,20.50
2023-04-27T15:54:49.159Z,21.12
2023-04-27T15:57:19.762Z,20.79
2023-04-27T15:59:51.795Z,20.76
2023-04-27T16:02:26.794Z,20.40
2023-04-27T16:04:57.875Z,20.63
2023-04-27T16:07:29.736Z,20.77
2023-04-27T16:10:00.750Z,21.15
2023-04-27T16:12:33.295Z,21.46
2023-04-27T16:15:04.237Z,21.64
2023-04-27T16:17:36.826Z,21.77
2023-04-27T16:20:09.680Z,21.93
2023-04-27T16:22:44.698Z,21.18
2023-04-27T16:25:17.876Z,21.87
2023-04-27T16:27:55.844Z,21.34
2023-04-27T16:30:31.846Z,21.87
2023-04-27T16:33:03.178Z,21.41
2023-04-27T16:35:39.025Z,21.50
2023-04-27T16:38:08.693Z,21.12
2023-04-27T16:40:39.721Z,21.28
2023-04-27T16:43:09.105Z,20.85
2023-04-27T16:45:41.924Z,20.45
2023-04-27T16:48:12.529Z,20.46
2023-04-27T16:50:47.005Z,20.36
2023-04-27T16:53:22.117Z,19.81
2023-04-27T16:55:58.814Z,19.82
2023-04-27T16:58:43.418Z,19.69
2023-04-27T17:01:20.804Z,19.31
2023-04-27T17:03:56.882Z,19.23
2023-04-27T17:06:32.529Z,18.49
2023-04-27T17:09:06.364Z,18.65
2023-04-27T17:11:36.710Z,18.15
2023-04-27T17:14:06.350Z,18.07
2023-04-27T17:16:48.188Z,17.81
2023-04-27T17:19:23.359Z,17.43
2023-04-27T17:21:53.336Z,17.24
2023-04-27T17:24:24.768Z,17.16
2023-04-27T17:26:56.626Z,17.10
2023-04-27T17:29:34.136Z,16.88
2023-04-27T17:32:16.074Z,16.67
2023-04-27T17:34:47.520Z,16.32
2023-04-27T17:37:19.545Z,16.43
2023-04-27T17:39:53.688Z,16.33
2023-04-27T17:42:23.253Z,16.19
2023-04-27T17:44:51.971Z,16.13
2023-04-27T17:47:30.486Z,16.08
2023-04-27T17:50:01.881Z,16.00
2023-04-27T17:52:31.456Z,15.91
2023-04-27T17:54:59.576Z,15.89
2023-04-27T17:57:28.959Z,15.78
2023-04-27T18:00:08.603Z,15.46
2023-04-27T18:02:43.784Z,15.59
2023-04-27T18:05:12.722Z,15.41
2023-04-27T18:07:53.867Z,15.17
2023-04-27T18:10:24.962Z,15.00
2023-04-27T18:12:56.086Z,15.25
2023-04-27T18:15:26.450Z,15.08
2023-04-27T18:18:00.790Z,15.27
2023-04-27T18:20:35.368Z,15.07
2023-04-27T18:23:04.141Z,14.93
2023-04-27T18:25:32.428Z,15.04
2023-04-27T18:28:05.993Z,15.09
2023-04-27T18:30:34.903Z,14.81
2023-04-27T18:33:05.710Z,14.71
2023-04-27T18:35:36.800Z,14.83
2023-04-27T18:38:13.917Z,14.86
2023-04-27T18:40:45.384Z,14.87
2023-04-27T18:43:22.506Z,14.81
2023-04-27T18:45:59.672Z,14.69
2023-04-27T18:48:30.895Z,14.69
2023-04-27T18:51:04.288Z,14.58
2023-04-27T18:53:34.073Z,14.48
2023-04-27T18:56:03.459Z,14.38
2023-04-27T18:58:34.558Z,14.59
2023-04-27T19:01:12.503Z,14.57
2023-04-27T19:03:58.284Z,14.47
2023-04-27T19:06:33.820Z,14.38
2023-04-27T19:09:20.341Z,14.38
2023-04-27T19:12:02.950Z,14.44
2023-04-27T19:14:40.537Z,14.31
2023-04-27T19:17:22.725Z,14.21
2023-04-27T19:19:56.718Z,14.10
2023-04-27T19:22:39.559Z,14.30
2023-04-27T19:25:19.911Z,14.18
2023-04-27T19:28:01.447Z,14.21
2023-04-27T19:30:32.590Z,14.02
2023-04-27T19:33:04.325Z,13.86
2023-04-27T19:35:36.457Z,13.87
2023-04-27T19:38:17.648Z,13.89
2023-04-27T19:40:52.450Z,14.12
2023-04-27T19:43:29.372Z,14.11
2023-04-27T19:45:58.055Z,13.82
2023-04-27T19:48:36.581Z,13.88
2023-04-27T19:51:15.851Z,13.83
2023-04-27T19:53:52.301Z,13.74
2023-04-27T19:56:22.797Z,13.73
2023-04-27T19:58:53.431Z,13.96
2023-04-27T20:01:33.857Z,13.69
2023-04-27T20:04:04.080Z,13.96
2023-04-27T20:06:35.330Z,13.90
2023-04-27T20:09:05.361Z,13.68
2023-04-27T20:11:36.208Z,13.64
2023-04-27T20:14:14.527Z,13.61
2023-04-27T20:16:44.639Z,13.61
2023-04-27T20:19:17.847Z,13.71
2023-04-27T20:21:52.154Z,13.63
2023-04-27T20:24:20.845Z,13.71
2023-04-27T20:26:49.213Z,13.47
2023-04-27T20:29:20.211Z,13.51
2023-04-27T20:31:50.528Z,13.33
2023-04-27T20:34:21.390Z,13.34
2023-04-27T20:37:05.515Z,13.34
2023-04-27T20:39:36.261Z,13.40
2023-04-27T20:42:13.473Z,13.32
2023-04-27T20:44:55.018Z,13.38
2023-04-27T20:47:23.958Z,13.38
2023-04-27T20:50:01.285Z,13.06
2023-04-27T20:52:38.609Z,13.13
2023-04-27T20:55:08.469Z,13.11
2023-04-27T20:57:39.379Z,13.14
2023-04-27T21:00:10.635Z,13.07
2023-04-27T21:02:39.784Z,13.17
2023-04-27T21:05:11.605Z,12.93
2023-04-27T21:07:42.056Z,12.93
2023-04-27T21:10:19.609Z,12.74
2023-04-27T21:12:48.927Z,12.79
2023-04-27T21:15:29.957Z,12.65
2023-04-27T21:18:00.907Z,12.67
2023-04-27T21:20:34.208Z,12.62
2023-04-27T21:23:22.278Z,12.57
2023-04-27T21:25:53.988Z,12.75
2023-04-27T21:28:29.553Z,12.67
2023-04-27T21:31:01.355Z,12.69
2023-04-27T21:33:39.062Z,12.50
2023-04-27T21:36:09.123Z,12.50
2023-04-27T21:38:43.809Z,12.47
2023-04-27T21:41:13.572Z,12.47
2023-04-27T21:43:45.288Z,12.48
2023-04-27T21:46:14.171Z,12.86
2023-04-27T21:48:43.985Z,12.69
2023-04-27T21:51:14.495Z,12.68
2023-04-27T21:53:57.613Z,12.47
2023-04-27T21:56:28.689Z,12.68
2023-04-27T21:59:02.970Z,12.61
2023-04-27T22:01:42.949Z,12.77
2023-04-27T22:04:14.861Z,12.56
2023-04-27T22:06:46.366Z,12.47
2023-04-27T22:09:29.558Z,12.53
2023-04-27T22:11:57.742Z,12.44
2023-04-27T22:14:34.753Z,12.62
2023-04-27T22:17:08.483Z,12.28
2023-04-27T22:19:37.951Z,12.60
2023-04-27T22:22:09.979Z,12.42
2023-04-27T22:24:58.679Z,12.22
2023-04-27T22:27:35.300Z,12.34
2023-04-27T22:30:20.425Z,12.32
2023-04-27T22:32:49.998Z,12.52
2023-04-27T22:35:28.186Z,12.44
2023-04-27T22:37:58.555Z,12.47
2023-04-27T22:40:31.762Z,12.32
2023-04-27T22:43:03.102Z,12.58
2023-04-27T22:45:36.123Z,12.48
2023-04-27T22:48:09.919Z,12.31
2023-04-27T22:50:39.394Z,12.42
2023-04-27T22:53:08.246Z,12.18
2023-04-27T22:55:52.461Z,12.29
2023-04-27T22:58:21.160Z,12.27
2023-04-27T23:00:52.143Z,12.06
2023-04-27T23:03:24.061Z,12.08
2023-04-27T23:05:54.901Z,11.90
2023-04-27T23:08:26.617Z,12.06
2023-04-27T23:10:58.656Z,12.08
2023-04-27T23:13:31.566Z,12.10
2023-04-27T23:16:01.758Z,11.83
2023-04-27T23:18:33.196Z,11.94
2023-04-27T23:21:02.780Z,12.02
2023-04-27T23:23:39.609Z,12.12
2023-04-27T23:26:18.311Z,11.99
2023-04-27T23:28:56.287Z,11.92
2023-04-27T23:31:26.590Z,11.70
2023-04-27T23:34:04.434Z,11.83
2023-04-27T23:36:33.953Z,11.90
2023-04-27T23:39:13.132Z,11.80
2023-04-27T23:41:47.659Z,11.65
2023-04-27T23:44:15.992Z,11.59
2023-04-27T23:46:52.134Z,11.53
2023-04-27T23:49:23.840Z,11.47
2023-04-27T23:52:01.133Z,11.64
2023-04-27T23:54:36.155Z,11.49
2023-04-27T23:57:14.252Z,11.58
2023-04-27T23:59:51.292Z,11.51
